sensor_id;sensor_type;location;lat;lon;timestamp;P1;durP1;ratioP1;P2;durP2;ratioP2
9330;SDS011;4704;50.470;12.072;2023-07-31T00:00:46;5.28;;;1.70;;
9330;SDS011;4704;50.470;12.072;2023-07-31T00:03:13;3.28;;;1.20;;
9330;SDS011;4704;50.470;12.072;2023-07-31T00:05:41;3.92;;;1.65;;
9330;SDS011;4704;50.470;12.072;2023-07-31T00:08:08;3.03;;;1.50;;
9330;SDS011;4704;50.470;12.072;2023-07-31T00:10:35;1.90;;;1.40;;
9330;SDS011;4704;50.470;12.072;2023-07-31T00:13:03;2.42;;;1.50;;
9330;SDS011;4704;50.470;12.072;2023-07-31T00:15:30;1.80;;;1.40;;
9330;SDS011;4704;50.470;12.072;2023-07-31T00:17:59;1.90;;;1.38;;
9330;SDS011;4704;50.470;12.072;2023-07-31T00:20:27;3.53;;;1.40;;
9330;SDS011;4704;50.470;12.072;2023-07-31T00:22:54;1.90;;;1.38;;
9330;SDS011;4704;50.470;12.072;2023-07-31T00:25:22;2.80;;;1.23;;
9330;SDS011;4704;50.470;12.072;2023-07-31T00:27:49;2.40;;;1.52;;
9330;SDS011;4704;50.470;12.072;2023-07-31T00:30:17;3.80;;;1.67;;
9330;SDS011;4704;50.470;12.072;2023-07-31T00:32:44;2.95;;;1.63;;
9330;SDS011;4704;50.470;12.072;2023-07-31T00:35:13;1.77;;;1.38;;
9330;SDS011;4704;50.470;12.072;2023-07-31T00:37:41;2.45;;;1.63;;
9330;SDS011;4704;50.470;12.072;2023-07-31T00:40:08;2.85;;;1.55;;
9330;SDS011;4704;50.470;12.072;2023-07-31T00:42:36;2.42;;;1.60;;
9330;SDS011;4704;50.470;12.072;2023-07-31T00:45:04;2.60;;;1.48;;
9330;SDS011;4704;50.470;12.072;2023-07-31T00:47:31;2.72;;;1.60;;
9330;SDS011;4704;50.470;12.072;2023-07-31T00:49:59;2.00;;;1.60;;
9330;SDS011;4704;50.470;12.072;2023-07-31T00:52:28;2.97;;;1.42;;
9330;SDS011;4704;50.470;12.072;2023-07-31T00:54:55;3.95;;;1.55;;
9330;SDS011;4704;50.470;12.072;2023-07-31T00:57:23;2.97;;;1.50;;
9330;SDS011;4704;50.470;12.072;2023-07-31T00:59:50;1.70;;;1.50;;
9330;SDS011;4704;50.470;12.072;2023-07-31T01:02:18;4.05;;;1.60;;
9330;SDS011;4704;50.470;12.072;2023-07-31T01:04:45;2.60;;;1.65;;
9330;SDS011;4704;50.470;12.072;2023-07-31T01:07:14;3.78;;;1.52;;
9330;SDS011;4704;50.470;12.072;2023-07-31T01:09:49;1.80;;;1.50;;
9330;SDS011;4704;50.470;12.072;2023-07-31T01:12:20;2.78;;;1.80;;
9330;SDS011;4704;50.470;12.072;2023-07-31T01:14:52;2.60;;;1.83;;
9330;SDS011;4704;50.470;12.072;2023-07-31T01:17:28;2.35;;;1.70;;
9330;SDS011;4704;50.470;12.072;2023-07-31T01:19:57;1.95;;;1.48;;
9330;SDS011;4704;50.470;12.072;2023-07-31T01:22:31;2.63;;;1.73;;
9330;SDS011;4704;50.470;12.072;2023-07-31T01:25:09;2.80;;;1.67;;
9330;SDS011;4704;50.470;12.072;2023-07-31T01:27:44;3.53;;;1.77;;
9330;SDS011;4704;50.470;12.072;2023-07-31T01:30:14;2.40;;;1.50;;
9330;SDS011;4704;50.470;12.072;2023-07-31T01:32:43;1.90;;;1.48;;
9330;SDS011;4704;50.470;12.072;2023-07-31T01:35:13;2.47;;;1.90;;
9330;SDS011;4704;50.470;12.072;2023-07-31T01:37:40;3.08;;;1.65;;
9330;SDS011;4704;50.470;12.072;2023-07-31T01:40:08;2.65;;;1.70;;
9330;SDS011;4704;50.470;12.072;2023-07-31T01:42:36;2.05;;;1.45;;
9330;SDS011;4704;50.470;12.072;2023-07-31T01:45:05;2.90;;;1.42;;
9330;SDS011;4704;50.470;12.072;2023-07-31T01:47:33;3.25;;;1.80;;
9330;SDS011;4704;50.470;12.072;2023-07-31T01:50:01;2.83;;;1.70;;
9330;SDS011;4704;50.470;12.072;2023-07-31T01:52:28;2.10;;;1.60;;
9330;SDS011;4704;50.470;12.072;2023-07-31T01:54:55;2.30;;;1.60;;
9330;SDS011;4704;50.470;12.072;2023-07-31T01:57:23;2.75;;;1.77;;
9330;SDS011;4704;50.470;12.072;2023-07-31T01:59:50;2.22;;;1.80;;
9330;SDS011;4704;50.470;12.072;2023-07-31T02:02:20;1.60;;;1.50;;
9330;SDS011;4704;50.470;12.072;2023-07-31T02:04:48;2.72;;;1.60;;
9330;SDS011;4704;50.470;12.072;2023-07-31T02:07:16;2.65;;;1.80;;
9330;SDS011;4704;50.470;12.072;2023-07-31T02:09:43;3.42;;;1.80;;
9330;SDS011;4704;50.470;12.072;2023-07-31T02:12:12;2.83;;;1.58;;
9330;SDS011;4704;50.470;12.072;2023-07-31T02:14:39;3.17;;;1.75;;
9330;SDS011;4704;50.470;12.072;2023-07-31T02:17:07;2.83;;;1.70;;
9330;SDS011;4704;50.470;12.072;2023-07-31T02:19:36;3.42;;;1.90;;
9330;SDS011;4704;50.470;12.072;2023-07-31T02:22:03;3.00;;;1.73;;
9330;SDS011;4704;50.470;12.072;2023-07-31T02:24:31;3.03;;;1.80;;
9330;SDS011;4704;50.470;12.072;2023-07-31T02:26:58;2.65;;;1.75;;
9330;SDS011;4704;50.470;12.072;2023-07-31T02:29:26;2.50;;;1.83;;
9330;SDS011;4704;50.470;12.072;2023-07-31T02:31:53;4.82;;;1.90;;
9330;SDS011;4704;50.470;12.072;2023-07-31T02:34:21;3.10;;;1.80;;
9330;SDS011;4704;50.470;12.072;2023-07-31T02:36:50;2.03;;;1.60;;
9330;SDS011;4704;50.470;12.072;2023-07-31T02:39:17;3.78;;;1.65;;
9330;SDS011;4704;50.470;12.072;2023-07-31T02:41:44;2.08;;;1.55;;
9330;SDS011;4704;50.470;12.072;2023-07-31T02:44:12;3.88;;;1.67;;
9330;SDS011;4704;50.470;12.072;2023-07-31T02:46:40;2.30;;;1.70;;
9330;SDS011;4704;50.470;12.072;2023-07-31T02:49:07;2.08;;;1.52;;
9330;SDS011;4704;50.470;12.072;2023-07-31T02:51:34;5.22;;;1.80;;
9330;SDS011;4704;50.470;12.072;2023-07-31T02:54:03;2.05;;;1.60;;
9330;SDS011;4704;50.470;12.072;2023-07-31T02:56:30;4.47;;;1.90;;
9330;SDS011;4704;50.470;12.072;2023-07-31T02:58:58;3.45;;;1.90;;
9330;SDS011;4704;50.470;12.072;2023-07-31T03:01:26;4.13;;;1.92;;
9330;SDS011;4704;50.470;12.072;2023-07-31T03:03:52;3.13;;;1.70;;
9330;SDS011;4704;50.470;12.072;2023-07-31T03:06:19;2.85;;;2.00;;
9330;SDS011;4704;50.470;12.072;2023-07-31T03:08:47;3.47;;;1.90;;
9330;SDS011;4704;50.470;12.072;2023-07-31T03:11:16;3.55;;;2.00;;
9330;SDS011;4704;50.470;12.072;2023-07-31T03:13:43;2.72;;;2.10;;
9330;SDS011;4704;50.470;12.072;2023-07-31T03:16:11;3.72;;;1.90;;
9330;SDS011;4704;50.470;12.072;2023-07-31T03:18:38;2.65;;;1.90;;
9330;SDS011;4704;50.470;12.072;2023-07-31T03:21:06;1.98;;;1.63;;
9330;SDS011;4704;50.470;12.072;2023-07-31T03:23:33;3.67;;;2.00;;
9330;SDS011;4704;50.470;12.072;2023-07-31T03:26:02;3.13;;;2.00;;
9330;SDS011;4704;50.470;12.072;2023-07-31T03:28:31;2.45;;;1.83;;
9330;SDS011;4704;50.470;12.072;2023-07-31T03:30:58;2.78;;;1.83;;
9330;SDS011;4704;50.470;12.072;2023-07-31T03:33:26;2.10;;;1.75;;
9330;SDS011;4704;50.470;12.072;2023-07-31T03:35:53;3.83;;;2.00;;
9330;SDS011;4704;50.470;12.072;2023-07-31T03:38:21;2.83;;;1.88;;
9330;SDS011;4704;50.470;12.072;2023-07-31T03:40:48;2.60;;;1.80;;
9330;SDS011;4704;50.470;12.072;2023-07-31T03:43:16;3.33;;;1.80;;
9330;SDS011;4704;50.470;12.072;2023-07-31T03:45:45;3.60;;;1.77;;
9330;SDS011;4704;50.470;12.072;2023-07-31T03:48:13;2.40;;;1.73;;
9330;SDS011;4704;50.470;12.072;2023-07-31T03:50:40;3.38;;;1.83;;
9330;SDS011;4704;50.470;12.072;2023-07-31T03:53:08;3.92;;;1.98;;
9330;SDS011;4704;50.470;12.072;2023-07-31T03:55:36;3.17;;;1.80;;
9330;SDS011;4704;50.470;12.072;2023-07-31T03:58:03;2.78;;;1.90;;
9330;SDS011;4704;50.470;12.072;2023-07-31T04:00:30;3.50;;;1.85;;
9330;SDS011;4704;50.470;12.072;2023-07-31T04:02:59;3.30;;;1.90;;
9330;SDS011;4704;50.470;12.072;2023-07-31T04:05:27;3.00;;;1.80;;
9330;SDS011;4704;50.470;12.072;2023-07-31T04:07:54;4.22;;;1.80;;
9330;SDS011;4704;50.470;12.072;2023-07-31T04:10:22;2.97;;;2.15;;
9330;SDS011;4704;50.470;12.072;2023-07-31T04:12:49;2.92;;;1.80;;
9330;SDS011;4704;50.470;12.072;2023-07-31T04:15:17;3.22;;;1.95;;
9330;SDS011;4704;50.470;12.072;2023-07-31T04:17:44;2.25;;;1.98;;
9330;SDS011;4704;50.470;12.072;2023-07-31T04:20:13;4.68;;;1.98;;
9330;SDS011;4704;50.470;12.072;2023-07-31T04:22:41;2.20;;;1.80;;
9330;SDS011;4704;50.470;12.072;2023-07-31T04:25:08;2.70;;;1.67;;
9330;SDS011;4704;50.470;12.072;2023-07-31T04:27:36;2.85;;;1.88;;
9330;SDS011;4704;50.470;12.072;2023-07-31T04:30:03;4.03;;;2.00;;
9330;SDS011;4704;50.470;12.072;2023-07-31T04:32:31;2.88;;;1.90;;
9330;SDS011;4704;50.470;12.072;2023-07-31T04:35:00;2.42;;;1.90;;
9330;SDS011;4704;50.470;12.072;2023-07-31T04:37:29;2.92;;;1.80;;
9330;SDS011;4704;50.470;12.072;2023-07-31T04:39:57;2.80;;;2.20;;
9330;SDS011;4704;50.470;12.072;2023-07-31T04:42:24;2.90;;;2.03;;
9330;SDS011;4704;50.470;12.072;2023-07-31T04:44:51;3.38;;;1.90;;
9330;SDS011;4704;50.470;12.072;2023-07-31T04:47:19;3.20;;;1.90;;
9330;SDS011;4704;50.470;12.072;2023-07-31T04:49:47;2.72;;;1.88;;
9330;SDS011;4704;50.470;12.072;2023-07-31T04:52:14;4.50;;;2.00;;
9330;SDS011;4704;50.470;12.072;2023-07-31T04:54:43;3.60;;;2.00;;
9330;SDS011;4704;50.470;12.072;2023-07-31T04:57:10;2.60;;;1.95;;
9330;SDS011;4704;50.470;12.072;2023-07-31T04:59:38;3.92;;;2.30;;
9330;SDS011;4704;50.470;12.072;2023-07-31T05:02:06;3.42;;;1.90;;
9330;SDS011;4704;50.470;12.072;2023-07-31T05:04:34;2.85;;;1.90;;
9330;SDS011;4704;50.470;12.072;2023-07-31T05:07:01;4.13;;;2.10;;
9330;SDS011;4704;50.470;12.072;2023-07-31T05:09:29;5.30;;;3.83;;
9330;SDS011;4704;50.470;12.072;2023-07-31T05:11:58;3.67;;;2.63;;
9330;SDS011;4704;50.470;12.072;2023-07-31T05:14:25;3.00;;;2.40;;
9330;SDS011;4704;50.470;12.072;2023-07-31T05:16:53;4.35;;;2.83;;
9330;SDS011;4704;50.470;12.072;2023-07-31T05:19:20;3.38;;;2.30;;
9330;SDS011;4704;50.470;12.072;2023-07-31T05:21:48;3.80;;;2.28;;
9330;SDS011;4704;50.470;12.072;2023-07-31T05:24:15;3.35;;;2.30;;
9330;SDS011;4704;50.470;12.072;2023-07-31T05:26:43;4.38;;;2.40;;
9330;SDS011;4704;50.470;12.072;2023-07-31T05:29:12;3.97;;;2.10;;
9330;SDS011;4704;50.470;12.072;2023-07-31T05:31:39;3.92;;;1.95;;
9330;SDS011;4704;50.470;12.072;2023-07-31T05:34:07;3.80;;;2.15;;
9330;SDS011;4704;50.470;12.072;2023-07-31T05:36:34;3.10;;;2.00;;
9330;SDS011;4704;50.470;12.072;2023-07-31T05:39:02;2.70;;;1.98;;
9330;SDS011;4704;50.470;12.072;2023-07-31T05:41:32;2.53;;;2.03;;
9330;SDS011;4704;50.470;12.072;2023-07-31T05:44:00;3.63;;;2.10;;
9330;SDS011;4704;50.470;12.072;2023-07-31T05:46:29;3.03;;;2.00;;
9330;SDS011;4704;50.470;12.072;2023-07-31T05:48:56;2.75;;;2.00;;
9330;SDS011;4704;50.470;12.072;2023-07-31T05:51:25;3.88;;;2.30;;
9330;SDS011;4704;50.470;12.072;2023-07-31T05:53:53;3.55;;;2.17;;
9330;SDS011;4704;50.470;12.072;2023-07-31T05:56:21;3.90;;;2.03;;
9330;SDS011;4704;50.470;12.072;2023-07-31T05:58:48;2.65;;;1.92;;
9330;SDS011;4704;50.470;12.072;2023-07-31T06:01:15;2.80;;;2.15;;
9330;SDS011;4704;50.470;12.072;2023-07-31T06:03:44;3.15;;;2.00;;
9330;SDS011;4704;50.470;12.072;2023-07-31T06:06:12;2.50;;;2.05;;
9330;SDS011;4704;50.470;12.072;2023-07-31T06:08:39;3.60;;;1.80;;
9330;SDS011;4704;50.470;12.072;2023-07-31T06:11:07;3.53;;;2.38;;
9330;SDS011;4704;50.470;12.072;2023-07-31T06:13:35;3.75;;;2.30;;
9330;SDS011;4704;50.470;12.072;2023-07-31T06:16:02;3.25;;;2.08;;
9330;SDS011;4704;50.470;12.072;2023-07-31T06:18:31;3.10;;;2.13;;
9330;SDS011;4704;50.470;12.072;2023-07-31T06:21:00;2.53;;;2.10;;
9330;SDS011;4704;50.470;12.072;2023-07-31T06:23:28;2.10;;;1.73;;
9330;SDS011;4704;50.470;12.072;2023-07-31T06:25:55;3.75;;;2.05;;
9330;SDS011;4704;50.470;12.072;2023-07-31T06:28:26;3.97;;;2.20;;
9330;SDS011;4704;50.470;12.072;2023-07-31T06:30:55;2.58;;;1.80;;
9330;SDS011;4704;50.470;12.072;2023-07-31T06:33:22;3.35;;;2.40;;
9330;SDS011;4704;50.470;12.072;2023-07-31T06:35:50;3.90;;;2.10;;
9330;SDS011;4704;50.470;12.072;2023-07-31T06:38:21;2.97;;;2.10;;
9330;SDS011;4704;50.470;12.072;2023-07-31T06:40:49;4.15;;;2.38;;
9330;SDS011;4704;50.470;12.072;2023-07-31T06:43:16;3.65;;;2.38;;
9330;SDS011;4704;50.470;12.072;2023-07-31T06:45:44;3.90;;;1.98;;
9330;SDS011;4704;50.470;12.072;2023-07-31T06:48:13;3.20;;;1.92;;
9330;SDS011;4704;50.470;12.072;2023-07-31T06:50:41;2.22;;;1.95;;
9330;SDS011;4704;50.470;12.072;2023-07-31T06:53:08;3.78;;;2.40;;
9330;SDS011;4704;50.470;12.072;2023-07-31T06:55:37;4.03;;;2.17;;
9330;SDS011;4704;50.470;12.072;2023-07-31T06:58:05;2.90;;;2.15;;
9330;SDS011;4704;50.470;12.072;2023-07-31T07:00:32;3.35;;;2.17;;
9330;SDS011;4704;50.470;12.072;2023-07-31T07:02:59;2.92;;;2.10;;
9330;SDS011;4704;50.470;12.072;2023-07-31T07:05:27;3.60;;;2.25;;
9330;SDS011;4704;50.470;12.072;2023-07-31T07:07:54;3.22;;;2.33;;
9330;SDS011;4704;50.470;12.072;2023-07-31T07:10:22;3.17;;;1.92;;
9330;SDS011;4704;50.470;12.072;2023-07-31T07:12:50;3.60;;;2.23;;
9330;SDS011;4704;50.470;12.072;2023-07-31T07:15:18;3.85;;;2.17;;
9330;SDS011;4704;50.470;12.072;2023-07-31T07:17:46;2.42;;;2.20;;
9330;SDS011;4704;50.470;12.072;2023-07-31T07:20:13;4.00;;;2.30;;
9330;SDS011;4704;50.470;12.072;2023-07-31T07:22:40;3.33;;;2.30;;
9330;SDS011;4704;50.470;12.072;2023-07-31T07:25:09;4.43;;;2.20;;
9330;SDS011;4704;50.470;12.072;2023-07-31T07:27:36;4.75;;;2.50;;
9330;SDS011;4704;50.470;12.072;2023-07-31T07:30:06;3.15;;;2.00;;
9330;SDS011;4704;50.470;12.072;2023-07-31T07:32:33;3.28;;;2.28;;
9330;SDS011;4704;50.470;12.072;2023-07-31T07:38:05;2.40;;;1.83;;
9330;SDS011;4704;50.470;12.072;2023-07-31T07:40:32;3.63;;;2.35;;
9330;SDS011;4704;50.470;12.072;2023-07-31T07:42:59;3.47;;;2.40;;
9330;SDS011;4704;50.470;12.072;2023-07-31T07:45:28;3.83;;;2.40;;
9330;SDS011;4704;50.470;12.072;2023-07-31T07:47:56;3.28;;;2.20;;
9330;SDS011;4704;50.470;12.072;2023-07-31T07:50:24;2.88;;;2.35;;
9330;SDS011;4704;50.470;12.072;2023-07-31T07:52:51;3.63;;;2.42;;
9330;SDS011;4704;50.470;12.072;2023-07-31T07:55:18;3.97;;;2.45;;
9330;SDS011;4704;50.470;12.072;2023-07-31T07:57:46;3.60;;;2.38;;
9330;SDS011;4704;50.470;12.072;2023-07-31T08:00:15;3.08;;;2.25;;
9330;SDS011;4704;50.470;12.072;2023-07-31T08:02:44;3.90;;;2.40;;
9330;SDS011;4704;50.470;12.072;2023-07-31T08:05:12;3.50;;;2.30;;
9330;SDS011;4704;50.470;12.072;2023-07-31T08:07:39;3.65;;;2.50;;
9330;SDS011;4704;50.470;12.072;2023-07-31T08:10:07;3.45;;;2.30;;
9330;SDS011;4704;50.470;12.072;2023-07-31T08:12:35;3.58;;;2.50;;
9330;SDS011;4704;50.470;12.072;2023-07-31T08:15:02;2.92;;;2.25;;
9330;SDS011;4704;50.470;12.072;2023-07-31T08:17:30;3.17;;;2.10;;
9330;SDS011;4704;50.470;12.072;2023-07-31T08:19:58;3.80;;;2.47;;
9330;SDS011;4704;50.470;12.072;2023-07-31T08:22:26;2.65;;;2.38;;
9330;SDS011;4704;50.470;12.072;2023-07-31T08:24:53;3.85;;;2.25;;
9330;SDS011;4704;50.470;12.072;2023-07-31T08:27:21;4.60;;;2.72;;
9330;SDS011;4704;50.470;12.072;2023-07-31T08:29:48;4.85;;;2.63;;
9330;SDS011;4704;50.470;12.072;2023-07-31T08:32:15;4.32;;;2.50;;
9330;SDS011;4704;50.470;12.072;2023-07-31T08:34:43;3.88;;;2.85;;
9330;SDS011;4704;50.470;12.072;2023-07-31T08:37:12;3.13;;;2.25;;
9330;SDS011;4704;50.470;12.072;2023-07-31T08:39:39;4.47;;;2.47;;
9330;SDS011;4704;50.470;12.072;2023-07-31T08:42:07;2.97;;;2.53;;
9330;SDS011;4704;50.470;12.072;2023-07-31T08:44:35;3.03;;;2.28;;
9330;SDS011;4704;50.470;12.072;2023-07-31T08:50:07;3.50;;;2.45;;
9330;SDS011;4704;50.470;12.072;2023-07-31T08:52:36;4.68;;;2.88;;
9330;SDS011;4704;50.470;12.072;2023-07-31T08:55:03;4.43;;;2.60;;
9330;SDS011;4704;50.470;12.072;2023-07-31T08:57:31;3.97;;;2.60;;
9330;SDS011;4704;50.470;12.072;2023-07-31T08:59:59;4.88;;;2.92;;
9330;SDS011;4704;50.470;12.072;2023-07-31T09:02:28;4.78;;;2.53;;
9330;SDS011;4704;50.470;12.072;2023-07-31T09:04:57;3.78;;;2.40;;
9330;SDS011;4704;50.470;12.072;2023-07-31T09:07:25;3.75;;;2.70;;
9330;SDS011;4704;50.470;12.072;2023-07-31T09:09:54;3.13;;;2.30;;
9330;SDS011;4704;50.470;12.072;2023-07-31T09:12:21;4.18;;;2.67;;
9330;SDS011;4704;50.470;12.072;2023-07-31T09:14:48;3.85;;;2.33;;
9330;SDS011;4704;50.470;12.072;2023-07-31T09:17:16;4.70;;;2.80;;
9330;SDS011;4704;50.470;12.072;2023-07-31T09:19:55;4.55;;;2.30;;
9330;SDS011;4704;50.470;12.072;2023-07-31T09:22:30;5.85;;;2.55;;
9330;SDS011;4704;50.470;12.072;2023-07-31T09:25:05;4.60;;;2.90;;
9330;SDS011;4704;50.470;12.072;2023-07-31T09:27:45;3.17;;;2.60;;
9330;SDS011;4704;50.470;12.072;2023-07-31T09:30:13;3.13;;;2.50;;
9330;SDS011;4704;50.470;12.072;2023-07-31T09:32:40;3.25;;;2.60;;
9330;SDS011;4704;50.470;12.072;2023-07-31T09:35:13;6.60;;;2.85;;
9330;SDS011;4704;50.470;12.072;2023-07-31T09:37:40;3.80;;;2.67;;
9330;SDS011;4704;50.470;12.072;2023-07-31T09:40:10;4.05;;;2.50;;
9330;SDS011;4704;50.470;12.072;2023-07-31T09:42:51;4.20;;;2.70;;
9330;SDS011;4704;50.470;12.072;2023-07-31T09:45:19;3.33;;;2.63;;
9330;SDS011;4704;50.470;12.072;2023-07-31T09:47:46;3.13;;;2.70;;
9330;SDS011;4704;50.470;12.072;2023-07-31T09:50:14;5.32;;;2.83;;
9330;SDS011;4704;50.470;12.072;2023-07-31T09:52:42;3.47;;;2.83;;
9330;SDS011;4704;50.470;12.072;2023-07-31T09:55:11;4.07;;;2.60;;
9330;SDS011;4704;50.470;12.072;2023-07-31T09:57:39;3.85;;;2.80;;
9330;SDS011;4704;50.470;12.072;2023-07-31T10:00:07;4.00;;;2.70;;
9330;SDS011;4704;50.470;12.072;2023-07-31T10:02:35;5.22;;;2.63;;
9330;SDS011;4704;50.470;12.072;2023-07-31T10:05:03;4.35;;;3.08;;
9330;SDS011;4704;50.470;12.072;2023-07-31T10:07:31;3.78;;;2.42;;
9330;SDS011;4704;50.470;12.072;2023-07-31T10:10:00;4.55;;;2.90;;
9330;SDS011;4704;50.470;12.072;2023-07-31T10:12:30;3.22;;;2.92;;
9330;SDS011;4704;50.470;12.072;2023-07-31T10:15:00;4.80;;;2.65;;
9330;SDS011;4704;50.470;12.072;2023-07-31T10:17:27;3.95;;;2.85;;
9330;SDS011;4704;50.470;12.072;2023-07-31T10:19:56;3.90;;;2.78;;
9330;SDS011;4704;50.470;12.072;2023-07-31T10:22:25;3.97;;;2.58;;
9330;SDS011;4704;50.470;12.072;2023-07-31T10:24:52;3.45;;;2.28;;
9330;SDS011;4704;50.470;12.072;2023-07-31T10:27:21;3.42;;;2.55;;
9330;SDS011;4704;50.470;12.072;2023-07-31T10:29:50;2.97;;;2.65;;
9330;SDS011;4704;50.470;12.072;2023-07-31T10:32:19;4.18;;;2.45;;
9330;SDS011;4704;50.470;12.072;2023-07-31T10:34:47;3.97;;;2.83;;
9330;SDS011;4704;50.470;12.072;2023-07-31T10:37:21;4.07;;;2.45;;
9330;SDS011;4704;50.470;12.072;2023-07-31T10:39:56;4.80;;;2.53;;
9330;SDS011;4704;50.470;12.072;2023-07-31T10:42:27;3.75;;;2.67;;
9330;SDS011;4704;50.470;12.072;2023-07-31T10:44:57;3.42;;;2.80;;
9330;SDS011;4704;50.470;12.072;2023-07-31T10:47:25;4.88;;;3.00;;
9330;SDS011;4704;50.470;12.072;2023-07-31T10:49:53;3.75;;;2.38;;
9330;SDS011;4704;50.470;12.072;2023-07-31T10:52:37;3.75;;;2.55;;
9330;SDS011;4704;50.470;12.072;2023-07-31T10:57:50;3.72;;;2.60;;
9330;SDS011;4704;50.470;12.072;2023-07-31T11:00:20;3.22;;;2.67;;
9330;SDS011;4704;50.470;12.072;2023-07-31T11:02:57;4.45;;;3.00;;
9330;SDS011;4704;50.470;12.072;2023-07-31T11:05:44;3.95;;;2.88;;
9330;SDS011;4704;50.470;12.072;2023-07-31T11:08:13;4.40;;;2.90;;
9330;SDS011;4704;50.470;12.072;2023-07-31T11:10:40;4.22;;;2.90;;
9330;SDS011;4704;50.470;12.072;2023-07-31T11:13:08;3.72;;;2.63;;
9330;SDS011;4704;50.470;12.072;2023-07-31T11:15:36;3.45;;;2.55;;
9330;SDS011;4704;50.470;12.072;2023-07-31T11:18:04;3.50;;;2.67;;
9330;SDS011;4704;50.470;12.072;2023-07-31T11:20:33;3.60;;;2.67;;
9330;SDS011;4704;50.470;12.072;2023-07-31T11:23:01;5.63;;;2.58;;
9330;SDS011;4704;50.470;12.072;2023-07-31T11:25:29;4.45;;;2.70;;
9330;SDS011;4704;50.470;12.072;2023-07-31T11:27:57;3.30;;;2.25;;
9330;SDS011;4704;50.470;12.072;2023-07-31T11:30:25;3.50;;;2.63;;
9330;SDS011;4704;50.470;12.072;2023-07-31T11:32:54;3.15;;;2.55;;
9330;SDS011;4704;50.470;12.072;2023-07-31T11:35:22;3.28;;;2.70;;
9330;SDS011;4704;50.470;12.072;2023-07-31T11:37:49;4.00;;;2.83;;
9330;SDS011;4704;50.470;12.072;2023-07-31T11:40:17;4.80;;;3.30;;
9330;SDS011;4704;50.470;12.072;2023-07-31T11:42:45;4.85;;;2.80;;
9330;SDS011;4704;50.470;12.072;2023-07-31T11:45:12;5.88;;;2.80;;
9330;SDS011;4704;50.470;12.072;2023-07-31T11:47:40;4.55;;;3.35;;
9330;SDS011;4704;50.470;12.072;2023-07-31T11:50:09;6.65;;;5.18;;
9330;SDS011;4704;50.470;12.072;2023-07-31T11:52:39;3.85;;;3.25;;
9330;SDS011;4704;50.470;12.072;2023-07-31T11:55:07;4.28;;;3.63;;
9330;SDS011;4704;50.470;12.072;2023-07-31T11:57:37;4.85;;;3.92;;
9330;SDS011;4704;50.470;12.072;2023-07-31T12:00:05;6.35;;;3.92;;
9330;SDS011;4704;50.470;12.072;2023-07-31T12:02:34;4.68;;;3.50;;
9330;SDS011;4704;50.470;12.072;2023-07-31T12:05:02;3.95;;;2.78;;
9330;SDS011;4704;50.470;12.072;2023-07-31T12:07:43;4.35;;;2.78;;
9330;SDS011;4704;50.470;12.072;2023-07-31T12:10:11;4.13;;;2.85;;
9330;SDS011;4704;50.470;12.072;2023-07-31T12:12:39;4.60;;;3.22;;
9330;SDS011;4704;50.470;12.072;2023-07-31T12:15:13;3.85;;;2.60;;
9330;SDS011;4704;50.470;12.072;2023-07-31T12:17:41;3.25;;;2.58;;
9330;SDS011;4704;50.470;12.072;2023-07-31T12:20:08;2.95;;;2.40;;
9330;SDS011;4704;50.470;12.072;2023-07-31T12:22:36;3.92;;;2.58;;
9330;SDS011;4704;50.470;12.072;2023-07-31T12:25:05;2.97;;;2.20;;
9330;SDS011;4704;50.470;12.072;2023-07-31T12:27:33;3.67;;;2.70;;
9330;SDS011;4704;50.470;12.072;2023-07-31T12:30:00;3.92;;;2.92;;
9330;SDS011;4704;50.470;12.072;2023-07-31T12:32:29;3.30;;;2.60;;
9330;SDS011;4704;50.470;12.072;2023-07-31T12:34:59;3.85;;;2.63;;
9330;SDS011;4704;50.470;12.072;2023-07-31T12:37:28;3.90;;;2.40;;
9330;SDS011;4704;50.470;12.072;2023-07-31T12:39:57;3.35;;;2.70;;
9330;SDS011;4704;50.470;12.072;2023-07-31T12:42:31;4.03;;;2.83;;
9330;SDS011;4704;50.470;12.072;2023-07-31T12:44:59;3.33;;;2.50;;
9330;SDS011;4704;50.470;12.072;2023-07-31T12:47:26;2.65;;;2.20;;
9330;SDS011;4704;50.470;12.072;2023-07-31T12:49:53;2.60;;;2.30;;
9330;SDS011;4704;50.470;12.072;2023-07-31T12:52:21;3.55;;;2.40;;
9330;SDS011;4704;50.470;12.072;2023-07-31T12:54:48;3.30;;;2.50;;
9330;SDS011;4704;50.470;12.072;2023-07-31T12:57:16;3.85;;;2.58;;
9330;SDS011;4704;50.470;12.072;2023-07-31T12:59:44;2.72;;;2.50;;
9330;SDS011;4704;50.470;12.072;2023-07-31T13:02:12;3.28;;;2.53;;
9330;SDS011;4704;50.470;12.072;2023-07-31T13:04:39;4.57;;;2.88;;
9330;SDS011;4704;50.470;12.072;2023-07-31T13:07:07;3.60;;;2.42;;
9330;SDS011;4704;50.470;12.072;2023-07-31T13:09:34;3.53;;;2.55;;
9330;SDS011;4704;50.470;12.072;2023-07-31T13:12:02;3.30;;;2.60;;
9330;SDS011;4704;50.470;12.072;2023-07-31T13:14:29;4.15;;;2.38;;
9330;SDS011;4704;50.470;12.072;2023-07-31T13:16:58;3.17;;;2.45;;
9330;SDS011;4704;50.470;12.072;2023-07-31T13:19:26;2.80;;;2.55;;
9330;SDS011;4704;50.470;12.072;2023-07-31T13:21:53;4.20;;;2.67;;
9330;SDS011;4704;50.470;12.072;2023-07-31T13:24:21;3.42;;;2.42;;
9330;SDS011;4704;50.470;12.072;2023-07-31T13:26:48;3.85;;;2.60;;
9330;SDS011;4704;50.470;12.072;2023-07-31T13:29:15;3.78;;;2.95;;
9330;SDS011;4704;50.470;12.072;2023-07-31T13:31:43;4.43;;;2.67;;
9330;SDS011;4704;50.470;12.072;2023-07-31T13:34:11;3.30;;;2.63;;
9330;SDS011;4704;50.470;12.072;2023-07-31T13:36:39;3.80;;;2.70;;
9330;SDS011;4704;50.470;12.072;2023-07-31T13:39:07;3.22;;;2.60;;
9330;SDS011;4704;50.470;12.072;2023-07-31T13:41:34;5.22;;;2.95;;
9330;SDS011;4704;50.470;12.072;2023-07-31T13:44:02;3.75;;;2.72;;
9330;SDS011;4704;50.470;12.072;2023-07-31T13:46:29;4.10;;;3.00;;
9330;SDS011;4704;50.470;12.072;2023-07-31T13:48:57;4.05;;;3.00;;
9330;SDS011;4704;50.470;12.072;2023-07-31T13:51:28;3.45;;;2.60;;
9330;SDS011;4704;50.470;12.072;2023-07-31T13:53:55;3.95;;;2.72;;
9330;SDS011;4704;50.470;12.072;2023-07-31T13:56:22;3.35;;;2.63;;
9330;SDS011;4704;50.470;12.072;2023-07-31T13:58:50;6.60;;;2.83;;
9330;SDS011;4704;50.470;12.072;2023-07-31T14:01:17;3.95;;;2.47;;
9330;SDS011;4704;50.470;12.072;2023-07-31T14:03:45;4.00;;;2.70;;
9330;SDS011;4704;50.470;12.072;2023-07-31T14:06:12;3.47;;;2.40;;
9330;SDS011;4704;50.470;12.072;2023-07-31T14:08:41;3.92;;;2.72;;
9330;SDS011;4704;50.470;12.072;2023-07-31T14:11:08;3.17;;;2.55;;
9330;SDS011;4704;50.470;12.072;2023-07-31T14:13:36;3.97;;;3.03;;
9330;SDS011;4704;50.470;12.072;2023-07-31T14:16:03;3.90;;;2.83;;
9330;SDS011;4704;50.470;12.072;2023-07-31T14:18:31;4.15;;;2.70;;
9330;SDS011;4704;50.470;12.072;2023-07-31T14:20:59;3.88;;;2.60;;
9330;SDS011;4704;50.470;12.072;2023-07-31T14:23:26;3.30;;;2.60;;
9330;SDS011;4704;50.470;12.072;2023-07-31T14:25:55;4.63;;;2.97;;
9330;SDS011;4704;50.470;12.072;2023-07-31T14:28:22;4.57;;;2.60;;
9330;SDS011;4704;50.470;12.072;2023-07-31T14:30:50;4.95;;;2.92;;
9330;SDS011;4704;50.470;12.072;2023-07-31T14:33:17;3.22;;;2.70;;
9330;SDS011;4704;50.470;12.072;2023-07-31T14:35:44;4.82;;;3.05;;
9330;SDS011;4704;50.470;12.072;2023-07-31T14:38:12;3.47;;;2.80;;
9330;SDS011;4704;50.470;12.072;2023-07-31T14:40:39;4.90;;;2.97;;
9330;SDS011;4704;50.470;12.072;2023-07-31T14:43:08;3.90;;;2.67;;
9330;SDS011;4704;50.470;12.072;2023-07-31T14:45:35;3.15;;;2.60;;
9330;SDS011;4704;50.470;12.072;2023-07-31T14:48:03;3.65;;;2.83;;
9330;SDS011;4704;50.470;12.072;2023-07-31T14:50:31;3.72;;;2.90;;
9330;SDS011;4704;50.470;12.072;2023-07-31T14:52:58;4.25;;;2.97;;
9330;SDS011;4704;50.470;12.072;2023-07-31T14:55:26;3.80;;;2.78;;
9330;SDS011;4704;50.470;12.072;2023-07-31T14:57:53;4.57;;;3.03;;
9330;SDS011;4704;50.470;12.072;2023-07-31T15:00:22;4.22;;;3.38;;
9330;SDS011;4704;50.470;12.072;2023-07-31T15:02:51;4.30;;;2.53;;
9330;SDS011;4704;50.470;12.072;2023-07-31T15:05:19;3.90;;;2.90;;
9330;SDS011;4704;50.470;12.072;2023-07-31T15:07:46;3.85;;;3.10;;
9330;SDS011;4704;50.470;12.072;2023-07-31T15:10:14;3.92;;;3.25;;
9330;SDS011;4704;50.470;12.072;2023-07-31T15:12:41;3.50;;;3.20;;
9330;SDS011;4704;50.470;12.072;2023-07-31T15:15:09;3.13;;;2.83;;